Time;durP1;ratioP1;P1;durP2;ratioP2;P2;SDS_P1;SDS_P2;PMS_P1;PMS_P2;Temp;Humidity;BMP_temperature;BMP_pressure;BME280_temperature;BME280_humidity;BME280_pressure;Samples;Min_cycle;Max_cycle;Signal;HPM_P1;HPM_P2
2022/10/19 00:00:21;;;;;;;20.13;10.75;;;;;;;8.15;55.82;95816.31;5073371;28;20043;-78
2022/10/19 00:02:46;;;;;;;24.25;11.07;;;;;;;8.51;56.40;95881.88;5066560;28;20109;-78
2022/10/19 00:05:12;;;;;;;22.65;10.55;;;;;;;8.34;56.47;95849.38;5060376;28;20122;-78
2022/10/19 00:07:37;;;;;;;21.77;10.25;;;;;;;8.37;56.27;95864.75;5047567;28;20051;-78
2022/10/19 00:10:03;;;;;;;19.95;11.02;;;;;;;8.14;56.84;95831.38;5076374;28;20638;-78
2022/10/19 00:12:29;;;;;;;28.45;12.15;;;;;;;7.91;56.09;95786.63;5058277;28;20498;-78
2022/10/19 00:14:55;;;;;;;29.38;11.65;;;;;;;8.51;56.81;95881.88;5058009;28;20086;-78
2022/10/19 00:17:20;;;;;;;21.02;10.40;;;;;;;8.48;56.91;95878.91;5076570;28;20071;-79
2022/10/19 00:19:46;;;;;;;22.92;12.15;;;;;;;8.48;57.11;95873.63;5058006;28;20036;-78
2022/10/19 00:22:12;;;;;;;26.73;11.05;;;;;;;8.47;57.20;95869.38;5057538;28;20040;-78
2022/10/19 00:24:38;;;;;;;21.13;10.65;;;;;;;7.95;56.90;95784.31;5057748;28;20470;-78
2022/10/19 00:27:05;;;;;;;35.00;12.13;;;;;;;8.24;57.17;95840.50;5076111;28;20157;-78
2022/10/19 00:29:30;;;;;;;22.77;11.32;;;;;;;8.36;57.26;95860.50;5057881;28;20567;-78
2022/10/19 00:31:56;;;;;;;28.23;12.05;;;;;;;8.40;57.12;95855.53;5057699;28;20044;-77
2022/10/19 00:34:21;;;;;;;29.10;11.55;;;;;;;7.71;57.11;95738.78;5057850;28;20036;-78
2022/10/19 00:36:46;;;;;;;28.15;12.48;;;;;;;8.39;57.47;95846.03;5078173;28;20407;-77
2022/10/19 00:39:14;;;;;;;25.00;12.40;;;;;;;8.36;57.65;95844.66;5059083;28;20511;-79
2022/10/19 00:41:40;;;;;;;22.17;11.95;;;;;;;7.87;57.35;95774.16;5067415;28;20588;-79
2022/10/19 00:44:29;;;;;;;28.40;11.95;;;;;;;8.03;57.76;95789.19;5068005;28;20071;-77
2022/10/19 00:47:00;;;;;;;22.80;11.02;;;;;;;7.00;58.26;95636.66;5041679;28;20048;-77
2022/10/19 00:49:32;;;;;;;25.23;11.73;;;;;;;8.24;57.87;95829.91;5072386;28;20051;-78
2022/10/19 00:52:03;;;;;;;29.73;12.45;;;;;;;7.68;58.73;95757.78;5059799;28;20043;-78
2022/10/19 00:54:31;;;;;;;31.08;12.73;;;;;;;8.09;58.61;95815.41;5058860;28;20039;-78
2022/10/19 00:56:57;;;;;;;21.88;11.18;;;;;;;8.04;58.40;95793.41;5079448;28;20180;-78
2022/10/19 00:59:25;;;;;;;24.27;11.00;;;;;;;8.16;58.32;95822.41;5076681;28;20100;-78
2022/10/19 01:01:52;;;;;;;26.98;12.68;;;;;;;8.16;58.59;95814.47;5078678;28;20056;-78
2022/10/19 01:04:21;;;;;;;28.77;12.40;;;;;;;8.12;58.81;95809.66;5079810;28;20039;-78
2022/10/19 01:06:47;;;;;;;20.90;11.45;;;;;;;8.12;58.56;95808.88;5060994;28;20804;-78
2022/10/19 01:09:12;;;;;;;30.58;11.57;;;;;;;7.94;58.75;95782.69;5079470;28;20036;-78
2022/10/19 01:12:19;;;;;;;25.35;11.98;;;;;;;8.07;58.84;95806.97;5079722;28;20046;-78
2022/10/19 01:15:05;;;;;;;25.80;11.77;;;;;;;7.85;58.92;95770.97;5027372;28;20551;-79
2022/10/19 01:18:06;;;;;;;32.33;12.27;;;;;;;8.00;58.85;95794.97;5078153;28;20040;-78
2022/10/19 01:21:17;;;;;;;25.63;12.10;;;;;;;7.99;59.29;95796.00;5052693;28;20672;-79
2022/10/19 01:23:45;;;;;;;28.35;12.32;;;;;;;7.97;59.12;95801.53;5059720;28;20894;-78
2022/10/19 01:26:37;;;;;;;27.20;11.52;;;;;;;7.95;59.42;95786.94;5061331;28;20474;-78
2022/10/19 01:29:29;;;;;;;25.35;13.23;;;;;;;7.93;59.65;95786.41;5079114;28;20067;-78
2022/10/19 01:32:05;;;;;;;24.67;12.70;;;;;;;7.63;59.85;95750.56;5080249;28;20035;-78
2022/10/19 01:34:46;;;;;;;24.83;12.55;;;;;;;7.90;59.76;95792.97;5079679;28;20502;-78
2022/10/19 01:37:30;;;;;;;29.40;12.73;;;;;;;7.83;59.67;95783.59;5079740;28;20046;-78
2022/10/19 01:40:04;;;;;;;24.02;12.38;;;;;;;7.49;59.86;95735.28;5078417;28;20547;-79
2022/10/19 01:42:41;;;;;;;29.02;11.80;;;;;;;7.75;59.64;95775.03;5077254;28;20040;-78
2022/10/19 01:45:26;;;;;;;27.13;11.52;;;;;;;7.64;59.80;95764.56;5078784;28;20496;-78
2022/10/19 01:48:09;;;;;;;29.23;13.38;;;;;;;7.67;60.18;95774.66;5079754;28;20047;-78
2022/10/19 01:50:42;;;;;;;25.48;12.35;;;;;;;7.71;60.47;95762.56;5079240;28;20044;-78
2022/10/19 01:53:10;;;;;;;28.90;11.88;;;;;;;7.72;60.26;95772.06;5079492;28;20129;-79
2022/10/19 01:55:41;;;;;;;33.38;13.15;;;;;;;7.71;60.49;95768.63;5061187;28;20131;-76
2022/10/19 01:58:09;;;;;;;23.65;12.27;;;;;;;7.67;60.43;95767.53;5062291;28;20857;-76
2022/10/19 02:00:40;;;;;;;29.95;11.93;;;;;;;7.31;60.78;95720.50;5080479;28;20375;-76
2022/10/19 02:03:07;;;;;;;26.08;11.85;;;;;;;7.28;61.01;95715.69;5074698;28;20251;-76
2022/10/19 02:05:34;;;;;;;26.92;12.40;;;;;;;7.52;60.82;95769.94;5058198;28;20039;-76
2022/10/19 02:08:09;;;;;;;25.58;12.20;;;;;;;6.42;61.03;95591.13;5062086;28;20491;-76
2022/10/19 02:10:38;;;;;;;25.55;12.05;;;;;;;7.36;60.76;95728.50;5080328;28;20774;-77
2022/10/19 02:13:06;;;;;;;22.73;11.63;;;;;;;7.53;61.24;95760.16;5080436;28;20036;-77
2022/10/19 02:15:37;;;;;;;25.48;11.80;;;;;;;7.48;60.90;95762.72;5061314;28;20534;-77
2022/10/19 02:18:03;;;;;;;25.23;12.52;;;;;;;6.96;61.54;95694.31;5078679;28;20043;-76
2022/10/19 02:20:29;;;;;;;27.58;12.27;;;;;;;7.32;61.29;95764.31;5078884;28;20454;-77
2022/10/19 02:22:55;;;;;;;29.88;12.27;;;;;;;6.84;61.41;95675.94;5080240;28;20434;-77
2022/10/19 02:25:22;;;;;;;21.92;11.32;;;;;;;6.80;61.15;95666.88;5061697;28;20052;-77
2022/10/19 02:27:47;;;;;;;33.20;11.90;;;;;;;7.21;60.88;95731.69;5080512;28;20403;-77
2022/10/19 02:30:16;;;;;;;28.83;11.38;;;;;;;6.72;61.68;95667.28;5061871;28;20035;-77
2022/10/19 02:32:43;;;;;;;17.33;9.77;;;;;;;7.28;61.38;95761.34;5080886;28;20043;-77
2022/10/19 02:35:10;;;;;;;24.80;10.52;;;;;;;6.56;61.27;95642.47;5080193;28;20044;-77
2022/10/19 02:37:36;;;;;;;24.30;11.38;;;;;;;7.23;61.33;95736.72;5080718;28;20099;-77
2022/10/19 02:40:02;;;;;;;27.88;11.23;;;;;;;6.77;61.28;95677.13;5061915;28;20123;-77
2022/10/19 02:42:34;;;;;;;24.30;11.00;;;;;;;7.35;61.93;95759.34;5079863;28;20074;-77
2022/10/19 02:45:07;;;;;;;32.15;12.90;;;;;;;7.12;61.65;95706.72;5078391;28;20035;-77
2022/10/19 02:47:40;;;;;;;23.77;11.00;;;;;;;7.43;61.03;95755.53;5080500;28;20081;-77
2022/10/19 02:50:08;;;;;;;21.63;10.18;;;;;;;7.41;61.18;95764.72;5079940;28;20399;-77
2022/10/19 02:52:36;;;;;;;25.65;10.65;;;;;;;7.41;60.89;95762.06;5079403;28;20494;-77
2022/10/19 02:55:02;;;;;;;22.20;10.07;;;;;;;7.09;60.99;95701.94;5079559;28;20054;-77
2022/10/19 02:57:27;;;;;;;26.33;10.43;;;;;;;7.32;60.58;95733.44;5061315;28;20040;-77
2022/10/19 02:59:53;;;;;;;22.55;10.43;;;;;;;6.50;60.73;95600.47;5061179;28;20917;-77
2022/10/19 03:02:19;;;;;;;20.08;10.73;;;;;;;7.39;60.89;95737.78;5079200;28;20110;-77
2022/10/19 03:04:46;;;;;;;26.30;11.32;;;;;;;7.03;61.59;95696.81;5079632;28;20063;-77
2022/10/19 03:07:14;;;;;;;21.17;10.20;;;;;;;6.91;61.31;95678.41;5079757;28;20051;-77
2022/10/19 03:09:43;;;;;;;26.98;10.32;;;;;;;7.10;61.39;95724.63;5079512;28;20036;-77
2022/10/19 03:12:09;;;;;;;23.00;10.15;;;;;;;7.22;61.03;95749.13;5079151;28;20043;-77
2022/10/19 03:14:34;;;;;;;29.58;10.98;;;;;;;7.31;61.11;95760.09;5069645;28;20035;-77
2022/10/19 03:16:59;;;;;;;23.33;10.95;;;;;;;7.09;60.76;95730.16;5079859;28;20047;-77
2022/10/19 03:19:25;;;;;;;28.77;10.90;;;;;;;6.82;61.10;95683.28;5079178;28;20035;-77
2022/10/19 03:21:50;;;;;;;21.70;10.90;;;;;;;6.72;61.53;95680.47;5079260;28;20039;-76
2022/10/19 03:24:16;;;;;;;26.55;10.48;;;;;;;6.87;61.16;95706.28;5060799;28;20518;-76
2022/10/19 03:26:41;;;;;;;22.67;9.68;;;;;;;7.21;61.37;95757.25;5078136;28;20040;-76
2022/10/19 03:29:07;;;;;;;25.70;11.02;;;;;;;7.04;61.70;95757.22;5079984;28;20109;-75
2022/10/19 03:31:32;;;;;;;20.27;9.50;;;;;;;6.53;61.78;95666.69;5079435;28;20109;-75
2022/10/19 03:33:58;;;;;;;25.45;11.73;;;;;;;6.98;61.40;95752.91;5070595;28;20510;-75
2022/10/19 03:36:27;;;;;;;29.20;11.20;;;;;;;6.96;62.23;95747.84;5079304;28;20044;-75
2022/10/19 03:38:57;;;;;;;21.33;11.10;;;;;;;6.80;62.16;95718.81;5060499;28;20058;-75
2022/10/19 03:41:27;;;;;;;20.98;10.27;;;;;;;6.88;61.68;95745.59;5069116;28;20079;-75
2022/10/19 03:43:52;;;;;;;25.25;10.10;;;;;;;6.69;62.05;95709.13;5059203;28;20044;-75
2022/10/19 03:46:18;;;;;;;28.77;11.63;;;;;;;6.72;62.33;95712.09;5061452;28;20039;-75
2022/10/19 03:48:44;;;;;;;56.50;25.35;;;;;;;6.69;61.89;95709.13;5058161;28;20047;-75
2022/10/19 03:51:13;;;;;;;75.40;31.38;;;;;;;6.37;62.25;95664.81;5075862;28;20048;-75
2022/10/19 03:53:39;;;;;;;79.35;35.75;;;;;;;6.92;62.04;95735.41;5071211;28;20098;-75
2022/10/19 03:56:05;;;;;;;56.60;25.05;;;;;;;6.94;61.96;95741.25;5061105;28;20137;-75
2022/10/19 03:58:33;;;;;;;64.38;27.85;;;;;;;6.89;62.18;95734.03;5070183;28;20490;-75
2022/10/19 04:00:59;;;;;;;59.67;25.35;;;;;;;6.44;62.41;95662.03;5061282;28;20478;-75
2022/10/19 04:03:24;;;;;;;51.72;24.30;;;;;;;6.91;62.60;95741.69;5079471;28;20143;-75
2022/10/19 04:05:50;;;;;;;58.38;24.33;;;;;;;6.55;62.44;95682.28;5079429;28;20047;-75
2022/10/19 04:08:16;;;;;;;47.97;22.08;;;;;;;6.89;62.08;95741.94;5067477;28;20051;-75
2022/10/19 04:10:41;;;;;;;48.00;21.35;;;;;;;6.57;62.50;95696.00;5080770;28;20044;-75
2022/10/19 04:13:07;;;;;;;41.63;21.13;;;;;;;6.13;62.58;95626.41;5076763;28;20044;-75
2022/10/19 04:15:32;;;;;;;46.63;17.20;;;;;;;6.15;62.97;95633.06;5077235;28;20565;-75
2022/10/19 04:17:57;;;;;;;40.80;17.95;;;;;;;6.17;62.80;95648.63;5077976;28;20122;-75
2022/10/19 04:20:26;;;;;;;50.53;19.85;;;;;;;6.33;62.52;95658.38;5058308;28;20157;-75
2022/10/19 04:22:52;;;;;;;51.90;21.55;;;;;;;6.73;62.54;95718.97;5051979;28;20160;-75
2022/10/19 04:25:17;;;;;;;74.47;32.83;;;;;;;6.85;62.93;95727.63;5053792;28;20093;-75
2022/10/19 04:27:44;;;;;;;96.85;40.35;;;;;;;6.69;62.76;95707.31;5053118;28;20055;-75
2022/10/19 04:30:09;;;;;;;57.10;26.42;;;;;;;6.59;63.19;95700.00;5072127;28;20044;-75
2022/10/19 04:32:35;;;;;;;45.65;22.80;;;;;;;6.76;62.63;95728.25;5064541;28;20035;-75
2022/10/19 04:35:00;;;;;;;46.25;20.92;;;;;;;5.99;62.71;95593.50;5065564;28;20044;-75
2022/10/19 04:37:26;;;;;;;42.58;20.60;;;;;;;5.98;62.29;95597.97;5049916;28;20040;-75
2022/10/19 04:39:51;;;;;;;37.97;18.55;;;;;;;6.43;62.60;95668.31;5070558;28;20662;-75
2022/10/19 04:42:16;;;;;;;38.85;18.70;;;;;;;6.00;62.65;95589.84;5072715;28;20153;-75
2022/10/19 04:44:42;;;;;;;38.90;19.05;;;;;;;6.79;62.60;95720.66;5049473;28;20050;-75
2022/10/19 04:47:07;;;;;;;42.10;19.58;;;;;;;6.28;62.49;95639.06;5053088;28;20514;-77
2022/10/19 04:49:33;;;;;;;45.10;20.98;;;;;;;6.80;63.06;95718.81;5049642;28;20052;-75
2022/10/19 04:51:58;;;;;;;59.13;20.75;;;;;;;6.53;62.81;95679.88;5061571;28;20047;-75
2022/10/19 04:54:24;;;;;;;45.28;18.35;;;;;;;6.83;62.95;95727.06;5072917;28;20072;-76
2022/10/19 04:56:49;;;;;;;53.30;19.33;;;;;;;6.30;62.36;95637.00;5049890;28;20099;-76
2022/10/19 04:59:14;;;;;;;43.78;17.70;;;;;;;5.87;62.93;95575.09;5069146;28;20040;-76
2022/10/19 05:01:41;;;;;;;48.78;18.42;;;;;;;6.56;62.46;95681.25;5068255;28;20079;-80
2022/10/19 05:04:07;;;;;;;41.33;17.05;;;;;;;6.66;62.80;95699.84;5068377;28;20156;-77
2022/10/19 05:06:33;;;;;;;57.65;18.48;;;;;;;6.19;62.60;95621.00;5071273;28;20051;-79
2022/10/19 05:08:59;;;;;;;45.83;16.38;;;;;;;6.64;61.78;95699.28;5044184;28;20079;-77
2022/10/19 05:11:25;;;;;;;47.22;16.50;;;;;;;6.39;61.83;95651.41;5042872;28;20039;-79
2022/10/19 05:13:50;;;;;;;50.88;18.20;;;;;;;6.86;61.58;95720.53;5065519;28;20071;-77
2022/10/19 05:16:19;;;;;;;46.70;16.70;;;;;;;6.57;61.46;95667.81;5034534;28;20048;-76
2022/10/19 05:18:54;;;;;;;48.47;15.77;;;;;;;6.45;60.95;95650.47;5047611;28;20201;-76
2022/10/19 05:21:20;;;;;;;37.47;14.43;;;;;;;6.32;61.13;95638.38;5042032;28;20036;-77
2022/10/19 05:23:49;;;;;;;36.45;14.05;;;;;;;6.88;60.92;95705.25;5044345;28;20062;-78
2022/10/19 05:26:17;;;;;;;41.55;15.02;;;;;;;6.90;60.42;95711.09;5053014;28;20600;-76
2022/10/19 05:28:47;;;;;;;35.75;15.23;;;;;;;6.85;61.13;95716.28;5046857;28;20945;-77
2022/10/19 05:31:15;;;;;;;42.17;15.35;;;;;;;6.83;60.28;95723.63;5037642;28;20583;-76
2022/10/19 05:33:41;;;;;;;39.05;14.98;;;;;;;6.38;60.41;95665.59;5057302;28;20494;-76
2022/10/19 05:36:26;;;;;;;36.95;12.63;;;;;;;6.28;59.92;95646.97;5055104;28;20048;-76
2022/10/19 05:38:56;;;;;;;38.90;15.05;;;;;;;6.78;60.83;95721.72;5066508;28;20048;-76
2022/10/19 05:41:23;;;;;;;35.63;15.07;;;;;;;6.64;59.50;95690.59;5065265;28;20575;-76
2022/10/19 05:44:00;;;;;;;39.22;17.52;;;;;;;6.56;60.23;95686.50;5068357;28;20040;-77
2022/10/19 05:46:27;;;;;;;45.45;15.55;;;;;;;6.77;60.40;95737.75;5064916;28;20056;-76
2022/10/19 05:48:54;;;;;;;27.65;12.63;;;;;;;6.37;60.39;95662.16;5044289;28;20374;-76
2022/10/19 05:51:21;;;;;;;29.40;13.32;;;;;;;6.66;59.95;95699.06;5063726;28;20059;-76
2022/10/19 05:53:47;;;;;;;27.13;11.98;;;;;;;6.33;59.85;95650.50;5057971;28;20051;-77
2022/10/19 05:56:15;;;;;;;25.27;13.10;;;;;;;6.58;59.83;95668.59;5059144;28;20498;-78
2022/10/19 05:58:41;;;;;;;35.00;13.57;;;;;;;6.43;59.61;95631.44;5043817;28;20474;-77
2022/10/19 06:01:08;;;;;;;37.88;15.88;;;;;;;7.00;59.41;95723.66;5056616;28;20078;-77
2022/10/19 06:03:34;;;;;;;43.45;16.38;;;;;;;6.39;59.51;95638.22;5040196;28;20349;-77
2022/10/19 06:06:04;;;;;;;43.70;15.57;;;;;;;6.39;60.28;95627.69;5039040;28;20036;-77
2022/10/19 06:08:30;;;;;;;33.83;15.45;;;;;;;7.04;59.72;95715.03;5064784;28;20585;-82
2022/10/19 06:11:08;;;;;;;33.63;16.08;;;;;;;7.22;59.14;95727.22;5041516;28;21150;-77
2022/10/19 06:13:35;;;;;;;30.88;14.50;;;;;;;7.16;59.81;95744.78;5050793;28;20064;-79
2022/10/19 06:16:00;;;;;;;34.80;14.45;;;;;;;6.88;59.54;95694.72;5033647;28;20104;-78
2022/10/19 06:18:26;;;;;;;25.42;12.30;;;;;;;7.08;59.15;95729.34;5060192;28;20565;-77
2022/10/19 06:20:51;;;;;;;31.20;10.40;;;;;;;6.87;59.37;95675.44;5065532;28;20144;-77
2022/10/19 06:23:17;;;;;;;45.63;11.18;;;;;;;7.13;58.84;95729.44;5057726;28;20056;-77
2022/10/19 06:25:43;;;;;;;38.83;11.68;;;;;;;7.03;59.04;95692.31;5062523;28;20040;-77
2022/10/19 06:28:09;;;;;;;39.47;13.35;;;;;;;7.30;57.86;95748.72;5066242;28;20790;-77
2022/10/19 06:30:39;;;;;;;44.88;13.50;;;;;;;7.28;58.44;95739.44;5065470;28;20066;-76
2022/10/19 06:33:05;;;;;;;35.47;12.93;;;;;;;7.20;58.21;95722.16;5042584;28;20036;-75
2022/10/19 06:35:31;;;;;;;46.45;14.32;;;;;;;7.26;58.75;95754.69;5042081;28;20087;-76
2022/10/19 06:37:56;;;;;;;52.55;16.08;;;;;;;6.77;58.45;95634.94;5043244;28;20044;-76
2022/10/19 06:40:23;;;;;;;26.88;12.70;;;;;;;7.09;58.40;95672.13;5045841;28;20113;-76
2022/10/19 06:42:48;;;;;;;43.00;14.05;;;;;;;7.44;57.92;95735.22;5048133;28;20495;-76
2022/10/19 06:45:14;;;;;;;35.90;12.98;;;;;;;7.66;57.90;95749.28;5042872;28;20040;-76
2022/10/19 06:47:39;;;;;;;31.23;13.27;;;;;;;7.38;57.12;95680.75;5066596;28;20039;-75
2022/10/19 06:50:06;;;;;;;31.50;10.88;;;;;;;7.34;56.82;95670.69;5048194;28;20044;-76
2022/10/19 06:52:33;;;;;;;31.85;11.98;;;;;;;7.87;56.79;95739.81;5041270;28;20063;-78
2022/10/19 06:54:58;;;;;;;33.53;11.98;;;;;;;7.30;56.65;95626.56;5060839;28;20380;-78
2022/10/19 06:57:23;;;;;;;24.27;11.35;;;;;;;7.86;56.24;95694.13;5064965;28;20051;-79
2022/10/19 06:59:49;;;;;;;26.95;11.23;;;;;;;8.03;56.12;95721.31;5052481;28;20036;-77
2022/10/19 07:02:15;;;;;;;33.55;12.15;;;;;;;8.02;56.31;95721.53;5062502;28;20032;-76
2022/10/19 07:04:40;;;;;;;37.30;12.00;;;;;;;8.16;56.11;95717.53;5065559;28;20048;-79
2022/10/19 07:07:06;;;;;;;30.80;12.77;;;;;;;7.64;55.96;95638.66;5044430;28;20044;-79
2022/10/19 07:09:32;;;;;;;38.58;13.35;;;;;;;7.87;56.10;95655.31;5037172;28;20040;-76
2022/10/19 07:11:57;;;;;;;34.85;13.70;;;;;;;7.50;56.05;95600.44;5057394;28;20140;-77
2022/10/19 07:14:27;;;;;;;42.72;14.35;;;;;;;7.18;56.04;95521.13;5060870;28;20040;-78
2022/10/19 07:16:54;;;;;;;34.22;13.88;;;;;;;8.47;55.94;95714.22;5065044;28;20044;-77
2022/10/19 07:19:26;;;;;;;38.80;13.27;;;;;;;8.13;55.82;95660.69;5065690;28;20051;-76
2022/10/19 07:21:51;;;;;;;40.45;12.68;;;;;;;8.39;55.53;95687.44;5041831;28;20388;-75
2022/10/19 07:24:18;;;;;;;30.17;13.38;;;;;;;8.00;55.71;95620.63;5045536;28;20060;-77
2022/10/19 07:26:43;;;;;;;40.58;14.48;;;;;;;8.25;55.32;95630.69;5060318;28;20048;-77
2022/10/19 07:29:09;;;;;;;30.98;13.57;;;;;;;8.01;54.97;95596.59;5043979;28;21671;-77
2022/10/19 07:31:34;;;;;;;33.35;13.23;;;;;;;7.87;54.71;95565.53;5065069;28;20489;-77
2022/10/19 07:34:02;;;;;;;29.90;13.35;;;;;;;8.13;54.59;95591.19;5062787;28;20040;-76
2022/10/19 07:36:29;;;;;;;42.40;15.32;;;;;;;8.34;54.33;95637.97;5043828;28;20043;-76
2022/10/19 07:38:55;;;;;;;41.22;13.93;;;;;;;8.74;55.13;95705.53;5069614;28;20425;-77
2022/10/19 07:41:23;;;;;;;45.35;14.57;;;;;;;8.43;54.85;95625.91;5056968;28;20036;-77
2022/10/19 07:43:50;;;;;;;44.58;14.52;;;;;;;9.02;54.51;95696.53;5061315;28;20124;-76
2022/10/19 07:46:18;;;;;;;38.13;14.77;;;;;;;9.11;54.52;95682.63;5062869;28;20615;-77
2022/10/19 07:48:44;;;;;;;33.08;15.30;;;;;;;8.86;54.41;95632.13;5049024;28;20386;-77
2022/10/19 07:51:11;;;;;;;47.00;15.63;;;;;;;8.63;54.90;95596.22;5041249;28;20091;-76
2022/10/19 07:53:37;;;;;;;38.17;17.20;;;;;;;9.20;53.52;95680.31;5059967;28;20046;-78
2022/10/19 07:56:08;;;;;;;39.88;15.98;;;;;;;9.28;53.59;95669.25;5044773;28;20173;-79
2022/10/19 07:58:35;;;;;;;34.97;16.05;;;;;;;8.98;53.47;95611.59;5062383;28;20048;-79
2022/10/19 08:04:15;;;;;;;42.58;16.38;;;;;;;7.98;53.39;95443.91;5121806;22;20281;-86
2022/10/19 08:06:41;;;;;;;48.58;16.10;;;;;;;9.46;52.77;95697.19;5042276;28;20062;-88
2022/10/19 08:09:06;;;;;;;39.40;15.77;;;;;;;8.99;53.17;95609.75;5059071;28;20048;-86
2022/10/19 08:11:33;;;;;;;39.78;16.00;;;;;;;8.16;52.30;95450.69;5058006;28;20045;-86
2022/10/19 08:14:01;;;;;;;58.42;18.63;;;;;;;7.65;53.01;95415.88;5041388;28;20053;-88
2022/10/19 08:16:35;;;;;;;48.42;17.13;;;;;;;9.51;52.69;95665.47;5058966;28;20048;-88
2022/10/19 08:19:12;;;;;;;47.40;16.85;;;;;;;8.59;52.25;95536.97;5059429;28;20052;-87
2022/10/19 08:21:39;;;;;;;49.00;15.27;;;;;;;8.48;52.66;95500.91;5043927;28;20055;-88
2022/10/19 08:24:06;;;;;;;41.45;16.60;;;;;;;9.59;52.62;95654.38;5059951;28;20286;-89
2022/10/19 08:26:33;;;;;;;48.15;17.52;;;;;;;9.64;52.77;95654.41;5056784;28;20033;-88
2022/10/19 08:29:11;;;;;;;39.15;15.43;;;;;;;9.59;52.45;95630.56;5061395;28;20062;-88
2022/10/19 08:31:36;;;;;;;43.00;16.20;;;;;;;6.31;52.16;95144.22;5038775;28;20064;-87
2022/10/19 08:34:03;;;;;;;44.90;16.95;;;;;;;8.40;51.86;95437.94;5045090;28;20045;-86
2022/10/19 08:36:30;;;;;;;41.40;17.25;;;;;;;8.70;52.25;95454.03;5046411;28;20131;-87
2022/10/19 08:38:56;;;;;;;36.20;16.05;;;;;;;8.40;51.71;95374.50;5042628;28;20066;-89
2022/10/19 08:41:39;;;;;;;54.15;16.73;;;;;;;10.22;51.21;95642.03;5059918;28;20049;-87
2022/10/19 08:44:30;;;;;;;35.47;15.45;;;;;;;10.24;51.08;95631.94;5052891;28;20173;-88
2022/10/19 08:47:20;;;;;;;33.22;14.63;;;;;;;10.39;50.56;95632.00;5068262;28;20036;-85
2022/10/19 08:49:57;;;;;;;43.65;15.38;;;;;;;10.49;50.45;95625.94;5075487;28;20060;-88
2022/10/19 08:52:34;;;;;;;38.97;15.07;;;;;;;9.91;50.98;95535.91;5071816;28;20048;-88
2022/10/19 08:55:12;;;;;;;31.48;13.13;;;;;;;10.75;49.51;95628.38;5047693;28;20056;-87
2022/10/19 08:57:49;;;;;;;25.55;10.60;;;;;;;10.06;48.54;95528.00;5056388;28;20106;-85
2022/10/19 09:00:17;;;;;;;26.75;11.50;;;;;;;11.02;48.88;95611.41;5054953;28;20044;-88
2022/10/19 09:03:12;;;;;;;36.17;11.18;;;;;;;11.14;48.02;95617.25;5054259;28;20128;-87
2022/10/19 09:05:41;;;;;;;24.73;8.25;;;;;;;11.50;46.85;95618.84;5065700;28;20036;-87
2022/10/19 09:08:09;;;;;;;21.38;7.20;;;;;;;11.09;46.77;95538.41;5065760;28;20032;-85
2022/10/19 09:10:38;;;;;;;17.95;6.65;;;;;;;12.06;46.34;95616.03;5059706;28;20044;-85
2022/10/19 09:13:13;;;;;;;23.30;6.50;;;;;;;10.19;46.79;95308.59;5067194;28;20092;-88
2022/10/19 09:15:49;;;;;;;17.38;6.13;;;;;;;12.38;45.95;95612.97;5052455;28;20064;-86
2022/10/19 09:18:23;;;;;;;26.20;5.97;;;;;;;11.79;45.51;95502.13;5052525;28;20482;-84
2022/10/19 09:20:52;;;;;;;13.52;5.45;;;;;;;11.69;45.90;95464.94;5046987;28;20040;-86
2022/10/19 09:23:39;;;;;;;10.68;4.68;;;;;;;8.68;45.28;94960.94;5049422;28;20124;-88
2022/10/19 09:26:13;;;;;;;17.02;5.15;;;;;;;12.80;44.77;95561.91;5053245;28;20085;-88
2022/10/19 09:28:54;;;;;;;9.60;5.20;;;;;;;13.05;44.80;95614.94;5048427;28;20088;-85
2022/10/19 09:31:41;;;;;;;12.65;4.90;;;;;;;11.79;44.50;95395.84;5066292;28;20396;-87
2022/10/19 09:34:24;;;;;;;11.52;5.55;;;;;;;9.55;44.53;95033.75;5049833;28;20032;-88
2022/10/19 09:36:56;;;;;;;20.98;5.40;;;;;;;12.08;44.51;95411.88;5067089;28;20049;-88
2022/10/19 09:39:23;;;;;;;14.27;4.88;;;;;;;13.50;43.99;95607.69;5066934;28;20039;-88
2022/10/19 09:41:52;;;;;;;19.05;4.55;;;;;;;11.18;43.93;95236.06;5050421;28;20052;-87
2022/10/19 09:44:18;;;;;;;13.85;5.20;;;;;;;12.17;44.02;95391.59;5055621;28;20090;-84
2022/10/19 09:46:51;;;;;;;14.85;5.53;;;;;;;13.48;43.87;95553.88;5048914;28;20113;-87
2022/10/19 09:49:43;;;;;;;12.60;4.78;;;;;;;14.05;43.08;95600.97;5062078;28;20043;-85
2022/10/19 09:52:39;;;;;;;7.20;4.10;;;;;;;14.71;40.61;95540.63;5046181;28;20099;-85
2022/10/19 09:55:06;;;;;;;14.48;4.50;;;;;;;15.92;39.09;95592.03;5054861;28;20036;-85
2022/10/19 09:57:32;;;;;;;9.95;5.10;;;;;;;16.72;37.54;95594.13;5047014;28;20055;-88
2022/10/19 09:59:57;;;;;;;11.25;4.75;;;;;;;17.04;36.23;95514.66;5046897;28;20123;-86
2022/10/19 10:02:32;;;;;;;16.35;4.68;;;;;;;17.95;34.30;95565.91;5043006;28;20035;-84
2022/10/19 10:05:14;;;;;;;19.58;5.15;;;;;;;18.66;33.50;95513.66;5072524;28;20056;-87
2022/10/19 10:07:39;;;;;;;;;;;;;;;19.21;32.53;95583.69;5065445;28;20048;-86
2022/10/19 10:10:44;;;;;;;10.73;4.93;;;;;;;19.62;31.85;95547.38;5055410;28;19916;-85
2022/10/19 10:13:19;;;;;;;15.35;4.35;;;;;;;19.56;30.72;95503.72;4986182;28;20050;-82
2022/10/19 10:15:54;;;;;;;14.23;4.78;;;;;;;20.53;30.61;95560.28;5027773;28;20048;-82
2022/10/19 10:18:23;;;;;;;12.85;4.70;;;;;;;20.39;30.30;95557.84;5042057;28;20049;-87
2022/10/19 10:21:25;;;;;;;19.27;5.38;;;;;;;20.91;29.65;95554.75;5041205;28;20120;-86
2022/10/19 10:24:39;;;;;;;9.60;4.07;;;;;;;18.88;28.95;95260.13;5046032;28;20120;-88
2022/10/19 10:27:39;;;;;;;;;;;;;;;;;;;;;
2022/10/19 10:29:58;;;;;;;11.55;4.22;;;;;;;19.92;29.15;95387.50;5103427;28;20108;-88
2022/10/19 10:32:25;;;;;;;13.77;5.22;;;;;;;19.78;29.50;95357.38;5105342;28;20047;-85
2022/10/19 10:35:06;;;;;;;18.48;5.40;;;;;;;20.13;29.91;95389.44;5076453;28;20094;-85
2022/10/19 10:37:40;;;;;;;7.22;4.53;;;;;;;21.55;29.34;95528.19;5085974;28;20050;-86
2022/10/19 10:40:23;;;;;;;12.95;4.95;;;;;;;21.62;28.31;95487.13;5086698;28;20506;-86
2022/10/19 10:42:50;;;;;;;9.98;4.35;;;;;;;20.09;28.02;95281.59;5091343;28;20047;-86
2022/10/19 10:45:32;;;;;;;10.52;3.45;;;;;;;21.34;28.18;95516.66;5091821;28;20127;-84
2022/10/19 10:48:15;;;;;;;13.80;4.63;;;;;;;19.77;28.45;95279.66;5080855;28;20043;-85
2022/10/19 10:50:41;;;;;;;15.18;4.70;;;;;;;20.42;28.74;95476.38;5094120;28;20130;-82
2022/10/19 10:53:37;;;;;;;16.88;4.57;;;;;;;19.72;30.57;95495.91;5095671;28;20047;-84
2022/10/19 10:56:05;;;;;;;13.55;5.25;;;;;;;17.98;30.42;95123.34;5083318;28;20048;-85
2022/10/19 10:58:52;;;;;;;6.60;3.97;;;;;;;20.29;29.45;95468.53;5082689;28;20523;-85
2022/10/19 11:01:27;;;;;;;9.05;4.80;;;;;;;20.49;29.69;95456.19;5089911;28;20040;-83
2022/10/19 11:04:23;;;;;;;20.35;4.78;;;;;;;20.56;29.19;95445.69;5078751;28;20048;-84
2022/10/19 11:07:00;;;;;;;17.70;4.88;;;;;;;21.00;28.65;95495.38;5076451;28;20043;-84
2022/10/19 11:09:43;;;;;;;9.23;4.65;;;;;;;21.00;28.65;95485.38;5080084;28;20043;-85
2022/10/19 11:12:18;;;;;;;13.18;4.80;;;;;;;20.87;28.37;95475.69;5069109;28;20092;-86
2022/10/19 11:14:57;;;;;;;6.93;3.53;;;;;;;20.10;27.88;95463.56;5098638;28;20040;-85
2022/10/19 11:17:28;;;;;;;7.78;3.95;;;;;;;19.56;28.16;95411.47;5080766;28;20032;-87
2022/10/19 11:19:54;;;;;;;16.38;4.43;;;;;;;18.53;28.37;95237.97;5079213;28;20052;-83
2022/10/19 11:22:33;;;;;;;12.35;4.85;;;;;;;20.32;27.96;95455.19;5085517;28;20132;-84
2022/10/19 11:25:28;;;;;;;7.35;3.90;;;;;;;17.66;27.04;95056.88;5080587;28;20134;-85
2022/10/19 11:28:17;;;;;;;17.17;4.03;;;;;;;20.41;27.03;95464.03;5081904;28;20070;-85
2022/10/19 11:31:21;;;;;;;10.18;3.70;;;;;;;20.30;27.30;95464.69;5052936;28;20047;-86
2022/10/19 11:34:20;;;;;;;8.27;3.55;;;;;;;18.55;27.12;95210.75;5075207;28;20047;-84
2022/10/19 11:37:14;;;;;;;18.45;4.03;;;;;;;19.07;26.48;95281.97;5095360;28;20040;-85
2022/10/19 11:40:21;;;;;;;24.98;4.82;;;;;;;19.15;26.60;95266.91;5089976;28;20104;-85
2022/10/19 11:43:22;;;;;;;8.18;3.33;;;;;;;18.16;25.92;95117.94;5093464;28;20040;-82
2022/10/19 11:46:22;;;;;;;10.32;3.53;;;;;;;18.60;25.58;95186.47;5045274;28;20502;-84
2022/10/19 11:49:06;;;;;;;19.00;3.28;;;;;;;20.21;25.07;95445.94;5093675;28;20099;-84